sensor_id;sensor_type;location;lat;lon;timestamp;P1;durP1;ratioP1;P2;durP2;ratioP2
22837;SDS011;11585;51.450;-0.240;2024-01-07T00:00:07;31.60;;;28.80;;
22837;SDS011;11585;51.450;-0.240;2024-01-07T00:05:19;32.03;;;29.23;;
22837;SDS011;11585;51.450;-0.240;2024-01-07T00:07:45;31.55;;;28.75;;
22837;SDS011;11585;51.450;-0.240;2024-01-07T00:10:10;31.33;;;28.52;;
22837;SDS011;11585;51.450;-0.240;2024-01-07T00:15:21;29.42;;;26.73;;
22837;SDS011;11585;51.450;-0.240;2024-01-07T00:17:46;29.65;;;26.95;;
22837;SDS011;11585;51.450;-0.240;2024-01-07T00:20:12;29.35;;;26.65;;
22837;SDS011;11585;51.450;-0.240;2024-01-07T00:25:25;29.30;;;26.60;;
22837;SDS011;11585;51.450;-0.240;2024-01-07T00:27:50;29.42;;;26.73;;
22837;SDS011;11585;51.450;-0.240;2024-01-07T00:30:17;30.60;;;27.80;;
22837;SDS011;11585;51.450;-0.240;2024-01-07T00:36:05;29.95;;;27.17;;
22837;SDS011;11585;51.450;-0.240;2024-01-07T00:38:31;28.25;;;25.65;;
22837;SDS011;11585;51.450;-0.240;2024-01-07T00:40:57;28.75;;;26.10;;
22837;SDS011;11585;51.450;-0.240;2024-01-07T00:43:22;29.48;;;26.77;;
22837;SDS011;11585;51.450;-0.240;2024-01-07T00:45:48;28.73;;;26.13;;
22837;SDS011;11585;51.450;-0.240;2024-01-07T00:48:14;29.90;;;27.10;;
22837;SDS011;11585;51.450;-0.240;2024-01-07T00:50:42;29.88;;;27.08;;
22837;SDS011;11585;51.450;-0.240;2024-01-07T00:53:07;29.67;;;26.98;;
22837;SDS011;11585;51.450;-0.240;2024-01-07T00:55:33;29.75;;;26.95;;
22837;SDS011;11585;51.450;-0.240;2024-01-07T00:58:00;28.25;;;25.58;;
22837;SDS011;11585;51.450;-0.240;2024-01-07T01:03:11;30.05;;;27.25;;
22837;SDS011;11585;51.450;-0.240;2024-01-07T01:05:37;28.67;;;26.08;;
22837;SDS011;11585;51.450;-0.240;2024-01-07T01:08:02;30.30;;;27.50;;
22837;SDS011;11585;51.450;-0.240;2024-01-07T01:10:28;29.95;;;27.15;;
22837;SDS011;11585;51.450;-0.240;2024-01-07T01:12:54;28.50;;;25.90;;
22837;SDS011;11585;51.450;-0.240;2024-01-07T01:15:20;28.67;;;26.08;;
22837;SDS011;11585;51.450;-0.240;2024-01-07T01:17:48;29.70;;;26.95;;
22837;SDS011;11585;51.450;-0.240;2024-01-07T01:20:14;29.88;;;27.17;;
22837;SDS011;11585;51.450;-0.240;2024-01-07T01:25:24;29.02;;;26.33;;
22837;SDS011;11585;51.450;-0.240;2024-01-07T01:27:51;30.55;;;27.65;;
22837;SDS011;11585;51.450;-0.240;2024-01-07T01:30:16;30.92;;;28.05;;
22837;SDS011;11585;51.450;-0.240;2024-01-07T01:32:44;30.35;;;27.55;;
22837;SDS011;11585;51.450;-0.240;2024-01-07T01:35:10;30.80;;;27.90;;
22837;SDS011;11585;51.450;-0.240;2024-01-07T01:37:36;29.95;;;27.15;;
22837;SDS011;11585;51.450;-0.240;2024-01-07T01:40:02;31.50;;;28.60;;
22837;SDS011;11585;51.450;-0.240;2024-01-07T01:42:29;30.98;;;28.08;;
22837;SDS011;11585;51.450;-0.240;2024-01-07T01:44:54;30.95;;;28.05;;
22837;SDS011;11585;51.450;-0.240;2024-01-07T01:47:24;31.30;;;28.33;;
22837;SDS011;11585;51.450;-0.240;2024-01-07T01:49:50;31.20;;;28.23;;
22837;SDS011;11585;51.450;-0.240;2024-01-07T01:55:01;30.40;;;27.52;;
22837;SDS011;11585;51.450;-0.240;2024-01-07T01:57:28;31.63;;;28.63;;
22837;SDS011;11585;51.450;-0.240;2024-01-07T02:00:01;32.17;;;29.17;;
22837;SDS011;11585;51.450;-0.240;2024-01-07T02:05:00;31.85;;;28.95;;
22837;SDS011;11585;51.450;-0.240;2024-01-07T02:07:27;31.10;;;28.20;;
22837;SDS011;11585;51.450;-0.240;2024-01-07T02:09:54;31.52;;;28.63;;
22837;SDS011;11585;51.450;-0.240;2024-01-07T02:12:21;31.70;;;28.80;;
22837;SDS011;11585;51.450;-0.240;2024-01-07T02:14:47;31.48;;;28.58;;
22837;SDS011;11585;51.450;-0.240;2024-01-07T02:17:13;32.17;;;29.17;;
22837;SDS011;11585;51.450;-0.240;2024-01-07T02:19:39;32.25;;;29.27;;
22837;SDS011;11585;51.450;-0.240;2024-01-07T02:24:51;30.85;;;28.05;;
22837;SDS011;11585;51.450;-0.240;2024-01-07T02:27:19;31.13;;;28.23;;
22837;SDS011;11585;51.450;-0.240;2024-01-07T02:29:45;31.08;;;28.25;;
22837;SDS011;11585;51.450;-0.240;2024-01-07T02:35:34;30.92;;;28.02;;
22837;SDS011;11585;51.450;-0.240;2024-01-07T02:38:00;30.90;;;28.10;;
22837;SDS011;11585;51.450;-0.240;2024-01-07T02:40:26;31.77;;;28.88;;
22837;SDS011;11585;51.450;-0.240;2024-01-07T02:42:51;30.90;;;28.00;;
22837;SDS011;11585;51.450;-0.240;2024-01-07T02:45:17;31.42;;;28.52;;
22837;SDS011;11585;51.450;-0.240;2024-01-07T02:47:43;31.52;;;28.63;;
22837;SDS011;11585;51.450;-0.240;2024-01-07T02:50:09;30.83;;;28.02;;
22837;SDS011;11585;51.450;-0.240;2024-01-07T02:55:40;31.52;;;28.63;;
22837;SDS011;11585;51.450;-0.240;2024-01-07T02:58:06;31.38;;;28.48;;
22837;SDS011;11585;51.450;-0.240;2024-01-07T03:00:34;30.75;;;27.85;;
22837;SDS011;11585;51.450;-0.240;2024-01-07T03:03:00;29.83;;;27.08;;
22837;SDS011;11585;51.450;-0.240;2024-01-07T03:05:25;30.15;;;27.35;;
22837;SDS011;11585;51.450;-0.240;2024-01-07T03:07:54;30.05;;;27.25;;
22837;SDS011;11585;51.450;-0.240;2024-01-07T03:10:19;30.33;;;27.52;;
22837;SDS011;11585;51.450;-0.240;2024-01-07T03:12:45;29.95;;;27.15;;
22837;SDS011;11585;51.450;-0.240;2024-01-07T03:15:11;30.63;;;27.83;;
22837;SDS011;11585;51.450;-0.240;2024-01-07T03:17:37;29.73;;;27.02;;
22837;SDS011;11585;51.450;-0.240;2024-01-07T03:20:02;30.10;;;27.35;;
22837;SDS011;11585;51.450;-0.240;2024-01-07T03:25:50;29.65;;;26.95;;
22837;SDS011;11585;51.450;-0.240;2024-01-07T03:28:16;29.83;;;27.13;;
22837;SDS011;11585;51.450;-0.240;2024-01-07T03:33:39;29.15;;;26.45;;
22837;SDS011;11585;51.450;-0.240;2024-01-07T03:36:06;29.30;;;26.70;;
22837;SDS011;11585;51.450;-0.240;2024-01-07T03:38:36;29.05;;;26.45;;
22837;SDS011;11585;51.450;-0.240;2024-01-07T03:43:49;29.75;;;27.05;;
22837;SDS011;11585;51.450;-0.240;2024-01-07T03:46:16;29.73;;;27.02;;
22837;SDS011;11585;51.450;-0.240;2024-01-07T03:48:42;29.55;;;26.85;;
22837;SDS011;11585;51.450;-0.240;2024-01-07T03:53:54;30.20;;;27.50;;
22837;SDS011;11585;51.450;-0.240;2024-01-07T03:56:20;29.65;;;26.95;;
22837;SDS011;11585;51.450;-0.240;2024-01-07T03:58:45;29.98;;;27.27;;
22837;SDS011;11585;51.450;-0.240;2024-01-07T04:04:34;29.58;;;26.90;;
22837;SDS011;11585;51.450;-0.240;2024-01-07T04:06:59;28.90;;;26.30;;
22837;SDS011;11585;51.450;-0.240;2024-01-07T04:09:25;28.80;;;26.20;;
22837;SDS011;11585;51.450;-0.240;2024-01-07T04:15:12;29.38;;;26.77;;
22837;SDS011;11585;51.450;-0.240;2024-01-07T04:17:38;29.65;;;26.95;;
22837;SDS011;11585;51.450;-0.240;2024-01-07T04:20:05;29.45;;;26.75;;
22837;SDS011;11585;51.450;-0.240;2024-01-07T04:22:33;29.67;;;26.98;;
22837;SDS011;11585;51.450;-0.240;2024-01-07T04:24:59;29.55;;;26.85;;
22837;SDS011;11585;51.450;-0.240;2024-01-07T04:27:24;30.08;;;27.38;;
22837;SDS011;11585;51.450;-0.240;2024-01-07T04:29:50;29.25;;;26.65;;
22837;SDS011;11585;51.450;-0.240;2024-01-07T04:32:17;28.95;;;26.35;;
22837;SDS011;11585;51.450;-0.240;2024-01-07T04:34:43;29.02;;;26.42;;
22837;SDS011;11585;51.450;-0.240;2024-01-07T04:37:08;28.92;;;26.33;;
22837;SDS011;11585;51.450;-0.240;2024-01-07T04:39:34;28.48;;;25.92;;
22837;SDS011;11585;51.450;-0.240;2024-01-07T04:44:47;28.85;;;26.25;;
22837;SDS011;11585;51.450;-0.240;2024-01-07T04:47:25;28.33;;;25.80;;
22837;SDS011;11585;51.450;-0.240;2024-01-07T04:55:03;28.90;;;26.30;;
22837;SDS011;11585;51.450;-0.240;2024-01-07T04:57:29;29.10;;;26.50;;
22837;SDS011;11585;51.450;-0.240;2024-01-07T04:59:54;29.05;;;26.45;;
22837;SDS011;11585;51.450;-0.240;2024-01-07T05:05:42;28.67;;;26.08;;
22837;SDS011;11585;51.450;-0.240;2024-01-07T05:08:08;28.40;;;25.80;;
22837;SDS011;11585;51.450;-0.240;2024-01-07T05:10:37;28.52;;;25.92;;
22837;SDS011;11585;51.450;-0.240;2024-01-07T05:13:03;27.85;;;25.35;;
22837;SDS011;11585;51.450;-0.240;2024-01-07T05:15:30;28.13;;;25.55;;
22837;SDS011;11585;51.450;-0.240;2024-01-07T05:17:56;28.35;;;25.75;;
22837;SDS011;11585;51.450;-0.240;2024-01-07T05:20:22;28.20;;;25.70;;
22837;SDS011;11585;51.450;-0.240;2024-01-07T05:22:47;28.98;;;26.38;;
22837;SDS011;11585;51.450;-0.240;2024-01-07T05:25:13;28.67;;;26.08;;
22837;SDS011;11585;51.450;-0.240;2024-01-07T05:27:39;27.58;;;25.08;;
22837;SDS011;11585;51.450;-0.240;2024-01-07T05:30:05;28.88;;;26.27;;
22837;SDS011;11585;51.450;-0.240;2024-01-07T05:35:19;28.95;;;26.35;;
22837;SDS011;11585;51.450;-0.240;2024-01-07T05:37:44;28.80;;;26.20;;
22837;SDS011;11585;51.450;-0.240;2024-01-07T05:40:10;28.77;;;26.17;;
22837;SDS011;11585;51.450;-0.240;2024-01-07T05:45:22;27.65;;;25.15;;
22837;SDS011;11585;51.450;-0.240;2024-01-07T05:47:47;28.98;;;26.38;;
22837;SDS011;11585;51.450;-0.240;2024-01-07T05:50:13;28.05;;;25.55;;
22837;SDS011;11585;51.450;-0.240;2024-01-07T05:55:27;28.83;;;26.27;;
22837;SDS011;11585;51.450;-0.240;2024-01-07T05:57:53;28.42;;;25.92;;
22837;SDS011;11585;51.450;-0.240;2024-01-07T06:00:18;28.35;;;25.85;;
22837;SDS011;11585;51.450;-0.240;2024-01-07T06:06:06;28.80;;;26.30;;
22837;SDS011;11585;51.450;-0.240;2024-01-07T06:08:32;27.92;;;25.52;;
22837;SDS011;11585;51.450;-0.240;2024-01-07T06:17:08;28.60;;;26.10;;
22837;SDS011;11585;51.450;-0.240;2024-01-07T06:19:34;29.52;;;26.95;;
22837;SDS011;11585;51.450;-0.240;2024-01-07T06:22:01;29.00;;;26.50;;
22837;SDS011;11585;51.450;-0.240;2024-01-07T06:24:27;29.40;;;26.80;;
22837;SDS011;11585;51.450;-0.240;2024-01-07T06:26:52;29.13;;;26.63;;
22837;SDS011;11585;51.450;-0.240;2024-01-07T06:29:18;28.58;;;26.08;;
22837;SDS011;11585;51.450;-0.240;2024-01-07T06:34:30;28.92;;;26.42;;
22837;SDS011;11585;51.450;-0.240;2024-01-07T06:36:57;28.95;;;26.35;;
22837;SDS011;11585;51.450;-0.240;2024-01-07T06:39:23;28.70;;;26.20;;
22837;SDS011;11585;51.450;-0.240;2024-01-07T06:41:53;28.73;;;26.23;;
22837;SDS011;11585;51.450;-0.240;2024-01-07T06:44:18;28.15;;;25.65;;
22837;SDS011;11585;51.450;-0.240;2024-01-07T06:46:44;29.13;;;26.63;;
22837;SDS011;11585;51.450;-0.240;2024-01-07T06:49:10;29.33;;;26.83;;
22837;SDS011;11585;51.450;-0.240;2024-01-07T06:54:05;29.73;;;27.13;;
22837;SDS011;11585;51.450;-0.240;2024-01-07T06:56:30;29.45;;;26.95;;
22837;SDS011;11585;51.450;-0.240;2024-01-07T06:58:56;29.48;;;26.95;;
22837;SDS011;11585;51.450;-0.240;2024-01-07T07:04:07;29.02;;;26.52;;
22837;SDS011;11585;51.450;-0.240;2024-01-07T07:06:32;30.02;;;27.42;;
22837;SDS011;11585;51.450;-0.240;2024-01-07T07:08:58;28.92;;;26.42;;
22837;SDS011;11585;51.450;-0.240;2024-01-07T07:18:08;29.83;;;27.33;;
22837;SDS011;11585;51.450;-0.240;2024-01-07T07:20:35;31.60;;;28.90;;
22837;SDS011;11585;51.450;-0.240;2024-01-07T07:23:01;30.08;;;27.52;;
22837;SDS011;11585;51.450;-0.240;2024-01-07T07:25:27;30.45;;;27.85;;
22837;SDS011;11585;51.450;-0.240;2024-01-07T07:27:52;31.65;;;29.05;;
22837;SDS011;11585;51.450;-0.240;2024-01-07T07:30:18;33.05;;;30.25;;
22837;SDS011;11585;51.450;-0.240;2024-01-07T07:32:44;33.05;;;30.25;;
22837;SDS011;11585;51.450;-0.240;2024-01-07T07:35:09;32.60;;;29.80;;
22837;SDS011;11585;51.450;-0.240;2024-01-07T07:37:35;33.13;;;30.33;;
22837;SDS011;11585;51.450;-0.240;2024-01-07T07:40:01;31.58;;;28.92;;
22837;SDS011;11585;51.450;-0.240;2024-01-07T07:45:32;33.03;;;30.17;;
22837;SDS011;11585;51.450;-0.240;2024-01-07T07:47:57;32.78;;;29.98;;
22837;SDS011;11585;51.450;-0.240;2024-01-07T07:50:24;34.40;;;31.50;;
22837;SDS011;11585;51.450;-0.240;2024-01-07T07:52:49;33.80;;;30.90;;
22837;SDS011;11585;51.450;-0.240;2024-01-07T07:55:15;31.58;;;28.77;;
22837;SDS011;11585;51.450;-0.240;2024-01-07T07:57:41;32.22;;;29.42;;
22837;SDS011;11585;51.450;-0.240;2024-01-07T08:00:06;32.00;;;29.20;;
22837;SDS011;11585;51.450;-0.240;2024-01-07T08:12:22;32.17;;;29.38;;
22837;SDS011;11585;51.450;-0.240;2024-01-07T08:14:48;32.55;;;29.80;;
22837;SDS011;11585;51.450;-0.240;2024-01-07T08:17:14;32.10;;;29.33;;
22837;SDS011;11585;51.450;-0.240;2024-01-07T08:19:40;32.17;;;29.38;;
22837;SDS011;11585;51.450;-0.240;2024-01-07T08:25:27;32.58;;;29.75;;
22837;SDS011;11585;51.450;-0.240;2024-01-07T08:27:53;32.13;;;29.33;;
22837;SDS011;11585;51.450;-0.240;2024-01-07T08:30:19;31.63;;;28.83;;
22837;SDS011;11585;51.450;-0.240;2024-01-07T08:36:06;32.63;;;29.77;;
22837;SDS011;11585;51.450;-0.240;2024-01-07T08:38:32;31.95;;;29.15;;
22837;SDS011;11585;51.450;-0.240;2024-01-07T08:40:57;33.80;;;30.90;;
22837;SDS011;11585;51.450;-0.240;2024-01-07T08:43:23;32.65;;;29.75;;
22837;SDS011;11585;51.450;-0.240;2024-01-07T08:45:49;30.35;;;27.65;;
22837;SDS011;11585;51.450;-0.240;2024-01-07T08:48:15;29.65;;;26.98;;
22837;SDS011;11585;51.450;-0.240;2024-01-07T08:50:41;30.45;;;27.75;;
22837;SDS011;11585;51.450;-0.240;2024-01-07T08:53:07;29.90;;;27.20;;
22837;SDS011;11585;51.450;-0.240;2024-01-07T08:55:33;29.85;;;27.23;;
22837;SDS011;11585;51.450;-0.240;2024-01-07T08:57:59;29.80;;;27.20;;
22837;SDS011;11585;51.450;-0.240;2024-01-07T09:00:25;30.38;;;27.73;;
22837;SDS011;11585;51.450;-0.240;2024-01-07T09:02:55;31.20;;;28.50;;
22837;SDS011;11585;51.450;-0.240;2024-01-07T09:05:20;31.08;;;28.38;;
22837;SDS011;11585;51.450;-0.240;2024-01-07T09:07:46;29.42;;;26.83;;
22837;SDS011;11585;51.450;-0.240;2024-01-07T09:10:12;29.23;;;26.63;;
22837;SDS011;11585;51.450;-0.240;2024-01-07T09:15:41;31.00;;;28.20;;
22837;SDS011;11585;51.450;-0.240;2024-01-07T09:18:07;30.00;;;27.30;;
22837;SDS011;11585;51.450;-0.240;2024-01-07T09:23:57;30.48;;;27.77;;
22837;SDS011;11585;51.450;-0.240;2024-01-07T09:26:22;29.17;;;26.60;;
22837;SDS011;11585;51.450;-0.240;2024-01-07T09:28:48;29.58;;;26.98;;
22837;SDS011;11585;51.450;-0.240;2024-01-07T09:31:16;30.58;;;27.98;;
22837;SDS011;11585;51.450;-0.240;2024-01-07T09:33:41;28.88;;;26.27;;
22837;SDS011;11585;51.450;-0.240;2024-01-07T09:36:07;29.55;;;26.95;;
22837;SDS011;11585;51.450;-0.240;2024-01-07T09:38:33;30.65;;;27.95;;
22837;SDS011;11585;51.450;-0.240;2024-01-07T09:43:44;30.48;;;27.88;;
22837;SDS011;11585;51.450;-0.240;2024-01-07T09:46:10;29.85;;;27.30;;
22837;SDS011;11585;51.450;-0.240;2024-01-07T09:48:36;29.90;;;27.30;;
22837;SDS011;11585;51.450;-0.240;2024-01-07T09:51:03;30.80;;;28.10;;
22837;SDS011;11585;51.450;-0.240;2024-01-07T09:53:31;30.67;;;28.08;;
22837;SDS011;11585;51.450;-0.240;2024-01-07T09:56:10;31.20;;;28.50;;
22837;SDS011;11585;51.450;-0.240;2024-01-07T09:58:41;30.30;;;27.70;;
22837;SDS011;11585;51.450;-0.240;2024-01-07T10:01:08;29.85;;;27.25;;
22837;SDS011;11585;51.450;-0.240;2024-01-07T10:03:34;30.30;;;27.80;;
22837;SDS011;11585;51.450;-0.240;2024-01-07T10:06:03;30.10;;;27.50;;
22837;SDS011;11585;51.450;-0.240;2024-01-07T10:08:32;30.85;;;28.25;;
22837;SDS011;11585;51.450;-0.240;2024-01-07T10:11:00;31.92;;;29.23;;
22837;SDS011;11585;51.450;-0.240;2024-01-07T10:15:53;29.80;;;27.23;;
22837;SDS011;11585;51.450;-0.240;2024-01-07T10:18:19;30.33;;;27.83;;
22837;SDS011;11585;51.450;-0.240;2024-01-07T10:20:46;30.48;;;27.88;;
22837;SDS011;11585;51.450;-0.240;2024-01-07T10:23:12;30.90;;;28.30;;
22837;SDS011;11585;51.450;-0.240;2024-01-07T10:25:38;30.65;;;28.00;;
22837;SDS011;11585;51.450;-0.240;2024-01-07T10:28:04;30.02;;;27.38;;
22837;SDS011;11585;51.450;-0.240;2024-01-07T10:33:17;29.73;;;27.13;;
22837;SDS011;11585;51.450;-0.240;2024-01-07T10:36:01;29.85;;;27.25;;
22837;SDS011;11585;51.450;-0.240;2024-01-07T10:38:29;29.50;;;27.00;;
22837;SDS011;11585;51.450;-0.240;2024-01-07T10:44:17;32.45;;;29.75;;
22837;SDS011;11585;51.450;-0.240;2024-01-07T10:46:43;32.30;;;29.55;;
22837;SDS011;11585;51.450;-0.240;2024-01-07T10:49:20;29.13;;;26.52;;
22837;SDS011;11585;51.450;-0.240;2024-01-07T10:54:27;28.55;;;26.05;;
22837;SDS011;11585;51.450;-0.240;2024-01-07T10:56:55;28.77;;;26.17;;
22837;SDS011;11585;51.450;-0.240;2024-01-07T10:59:23;29.02;;;26.48;;
22837;SDS011;11585;51.450;-0.240;2024-01-07T11:07:04;28.67;;;26.17;;
22837;SDS011;11585;51.450;-0.240;2024-01-07T11:09:55;28.73;;;26.23;;
22837;SDS011;11585;51.450;-0.240;2024-01-07T11:15:54;27.45;;;25.05;;
22837;SDS011;11585;51.450;-0.240;2024-01-07T11:18:20;27.95;;;25.55;;
22837;SDS011;11585;51.450;-0.240;2024-01-07T11:20:47;28.27;;;25.77;;
22837;SDS011;11585;51.450;-0.240;2024-01-07T11:23:26;27.85;;;25.45;;
22837;SDS011;11585;51.450;-0.240;2024-01-07T11:26:04;27.50;;;25.10;;
22837;SDS011;11585;51.450;-0.240;2024-01-07T11:28:50;26.88;;;24.48;;
22837;SDS011;11585;51.450;-0.240;2024-01-07T11:37:24;30.23;;;27.65;;
22837;SDS011;11585;51.450;-0.240;2024-01-07T11:39:51;29.35;;;26.85;;
22837;SDS011;11585;51.450;-0.240;2024-01-07T11:42:21;28.23;;;25.83;;
22837;SDS011;11585;51.450;-0.240;2024-01-07T11:44:54;27.17;;;24.83;;
22837;SDS011;11585;51.450;-0.240;2024-01-07T11:47:20;27.08;;;24.77;;
22837;SDS011;11585;51.450;-0.240;2024-01-07T11:49:48;27.85;;;25.45;;
22837;SDS011;11585;51.450;-0.240;2024-01-07T11:55:01;27.92;;;25.52;;
22837;SDS011;11585;51.450;-0.240;2024-01-07T11:57:27;26.80;;;24.40;;
22837;SDS011;11585;51.450;-0.240;2024-01-07T11:59:53;27.73;;;25.33;;
22837;SDS011;11585;51.450;-0.240;2024-01-07T12:05:40;27.95;;;25.55;;
22837;SDS011;11585;51.450;-0.240;2024-01-07T12:08:06;27.65;;;25.27;;
22837;SDS011;11585;51.450;-0.240;2024-01-07T12:13:02;29.95;;;27.48;;
22837;SDS011;11585;51.450;-0.240;2024-01-07T12:15:29;30.63;;;28.13;;
22837;SDS011;11585;51.450;-0.240;2024-01-07T12:17:58;28.75;;;26.38;;
22837;SDS011;11585;51.450;-0.240;2024-01-07T12:20:26;28.33;;;26.02;;
22837;SDS011;11585;51.450;-0.240;2024-01-07T12:22:55;28.90;;;26.60;;
22837;SDS011;11585;51.450;-0.240;2024-01-07T12:25:22;29.50;;;27.10;;
22837;SDS011;11585;51.450;-0.240;2024-01-07T12:27:51;28.80;;;26.40;;
22837;SDS011;11585;51.450;-0.240;2024-01-07T12:30:20;28.98;;;26.67;;
22837;SDS011;11585;51.450;-0.240;2024-01-07T12:32:46;29.42;;;27.02;;
22837;SDS011;11585;51.450;-0.240;2024-01-07T12:35:12;29.25;;;26.85;;
22837;SDS011;11585;51.450;-0.240;2024-01-07T12:37:38;28.63;;;26.23;;
22837;SDS011;11585;51.450;-0.240;2024-01-07T12:40:03;28.35;;;25.98;;
22837;SDS011;11585;51.450;-0.240;2024-01-07T12:42:32;28.13;;;25.83;;
22837;SDS011;11585;51.450;-0.240;2024-01-07T12:44:58;29.38;;;26.98;;
22837;SDS011;11585;51.450;-0.240;2024-01-07T12:47:23;29.30;;;26.83;;
22837;SDS011;11585;51.450;-0.240;2024-01-07T12:49:49;28.95;;;26.55;;
22837;SDS011;11585;51.450;-0.240;2024-01-07T17:03:54;30.08;;;27.58;;
22837;SDS011;11585;51.450;-0.240;2024-01-07T17:06:25;29.05;;;26.65;;
22837;SDS011;11585;51.450;-0.240;2024-01-07T17:08:51;37.22;;;32.22;;
22837;SDS011;11585;51.450;-0.240;2024-01-07T17:11:17;28.17;;;25.77;;
22837;SDS011;11585;51.450;-0.240;2024-01-07T17:13:43;28.42;;;26.02;;
22837;SDS011;11585;51.450;-0.240;2024-01-07T17:16:10;27.50;;;25.20;;
22837;SDS011;11585;51.450;-0.240;2024-01-07T17:18:41;27.27;;;24.98;;
22837;SDS011;11585;51.450;-0.240;2024-01-07T17:21:08;27.30;;;25.00;;
22837;SDS011;11585;51.450;-0.240;2024-01-07T17:23:34;27.73;;;25.42;;
22837;SDS011;11585;51.450;-0.240;2024-01-07T17:25:59;28.20;;;25.90;;
22837;SDS011;11585;51.450;-0.240;2024-01-07T17:28:25;28.10;;;25.77;;
22837;SDS011;11585;51.450;-0.240;2024-01-07T17:30:51;27.80;;;25.50;;
22837;SDS011;11585;51.450;-0.240;2024-01-07T17:33:17;27.52;;;25.23;;
22837;SDS011;11585;51.450;-0.240;2024-01-07T17:35:42;27.67;;;25.38;;
22837;SDS011;11585;51.450;-0.240;2024-01-07T17:38:08;27.45;;;25.15;;
22837;SDS011;11585;51.450;-0.240;2024-01-07T17:40:34;27.50;;;25.20;;
22837;SDS011;11585;51.450;-0.240;2024-01-07T17:43:02;27.95;;;25.58;;
22837;SDS011;11585;51.450;-0.240;2024-01-07T17:45:33;28.00;;;25.63;;
22837;SDS011;11585;51.450;-0.240;2024-01-07T17:48:03;28.00;;;25.60;;
22837;SDS011;11585;51.450;-0.240;2024-01-07T17:50:29;27.65;;;25.35;;
22837;SDS011;11585;51.450;-0.240;2024-01-07T17:52:56;27.92;;;25.63;;
22837;SDS011;11585;51.450;-0.240;2024-01-07T17:55:24;27.67;;;25.38;;
22837;SDS011;11585;51.450;-0.240;2024-01-07T17:57:50;27.23;;;24.92;;
22837;SDS011;11585;51.450;-0.240;2024-01-07T18:00:17;27.75;;;25.45;;
22837;SDS011;11585;51.450;-0.240;2024-01-07T18:02:46;27.55;;;25.25;;
22837;SDS011;11585;51.450;-0.240;2024-01-07T18:05:15;26.88;;;24.67;;
22837;SDS011;11585;51.450;-0.240;2024-01-07T18:07:41;26.77;;;24.55;;
22837;SDS011;11585;51.450;-0.240;2024-01-07T18:10:06;26.88;;;24.58;;
22837;SDS011;11585;51.450;-0.240;2024-01-07T18:12:36;26.17;;;23.98;;
22837;SDS011;11585;51.450;-0.240;2024-01-07T18:15:03;26.55;;;24.25;;
22837;SDS011;11585;51.450;-0.240;2024-01-07T18:17:29;26.33;;;24.02;;
22837;SDS011;11585;51.450;-0.240;2024-01-07T18:19:55;26.88;;;24.58;;
22837;SDS011;11585;51.450;-0.240;2024-01-07T18:22:21;26.77;;;24.48;;
22837;SDS011;11585;51.450;-0.240;2024-01-07T18:24:46;26.70;;;24.40;;
22837;SDS011;11585;51.450;-0.240;2024-01-07T18:27:14;26.77;;;24.50;;
22837;SDS011;11585;51.450;-0.240;2024-01-07T18:29:40;26.13;;;23.92;;
22837;SDS011;11585;51.450;-0.240;2024-01-07T18:32:16;26.13;;;23.92;;
22837;SDS011;11585;51.450;-0.240;2024-01-07T18:34:42;26.65;;;24.35;;
22837;SDS011;11585;51.450;-0.240;2024-01-07T18:37:09;26.75;;;24.45;;
22837;SDS011;11585;51.450;-0.240;2024-01-07T18:39:35;27.63;;;25.33;;
22837;SDS011;11585;51.450;-0.240;2024-01-07T18:42:04;27.58;;;25.27;;
22837;SDS011;11585;51.450;-0.240;2024-01-07T18:44:30;27.42;;;25.13;;
22837;SDS011;11585;51.450;-0.240;2024-01-07T18:46:55;27.27;;;24.98;;
22837;SDS011;11585;51.450;-0.240;2024-01-07T18:49:21;27.15;;;24.92;;
22837;SDS011;11585;51.450;-0.240;2024-01-07T18:54:17;27.20;;;24.95;;
22837;SDS011;11585;51.450;-0.240;2024-01-07T18:56:45;26.85;;;24.65;;
22837;SDS011;11585;51.450;-0.240;2024-01-07T18:59:11;26.58;;;24.38;;
22837;SDS011;11585;51.450;-0.240;2024-01-07T19:01:36;26.88;;;24.67;;
22837;SDS011;11585;51.450;-0.240;2024-01-07T19:04:04;26.77;;;24.58;;
22837;SDS011;11585;51.450;-0.240;2024-01-07T19:06:30;27.88;;;25.58;;
22837;SDS011;11585;51.450;-0.240;2024-01-07T19:08:55;26.88;;;24.58;;
22837;SDS011;11585;51.450;-0.240;2024-01-07T19:11:21;26.92;;;24.63;;
22837;SDS011;11585;51.450;-0.240;2024-01-07T19:13:47;27.65;;;25.35;;
22837;SDS011;11585;51.450;-0.240;2024-01-07T19:16:12;27.83;;;25.52;;
22837;SDS011;11585;51.450;-0.240;2024-01-07T19:18:38;27.50;;;25.23;;
22837;SDS011;11585;51.450;-0.240;2024-01-07T19:23:51;27.30;;;25.00;;
22837;SDS011;11585;51.450;-0.240;2024-01-07T19:26:16;27.02;;;24.73;;
22837;SDS011;11585;51.450;-0.240;2024-01-07T19:28:42;26.83;;;24.63;;
22837;SDS011;11585;51.450;-0.240;2024-01-07T19:31:12;26.75;;;24.55;;
22837;SDS011;11585;51.450;-0.240;2024-01-07T19:33:55;27.02;;;24.80;;
22837;SDS011;11585;51.450;-0.240;2024-01-07T19:36:31;27.63;;;25.33;;
22837;SDS011;11585;51.450;-0.240;2024-01-07T19:41:31;27.70;;;25.40;;
22837;SDS011;11585;51.450;-0.240;2024-01-07T19:44:01;27.33;;;25.02;;
22837;SDS011;11585;51.450;-0.240;2024-01-07T19:46:28;26.40;;;24.20;;
22837;SDS011;11585;51.450;-0.240;2024-01-07T19:48:58;26.52;;;24.33;;
22837;SDS011;11585;51.450;-0.240;2024-01-07T19:53:57;26.52;;;24.33;;
22837;SDS011;11585;51.450;-0.240;2024-01-07T19:56:22;27.90;;;25.60;;
22837;SDS011;11585;51.450;-0.240;2024-01-07T19:58:48;26.65;;;24.45;;
22837;SDS011;11585;51.450;-0.240;2024-01-07T20:01:14;27.10;;;24.90;;
22837;SDS011;11585;51.450;-0.240;2024-01-07T20:03:40;27.58;;;25.27;;
22837;SDS011;11585;51.450;-0.240;2024-01-07T20:06:10;26.35;;;24.15;;
22837;SDS011;11585;51.450;-0.240;2024-01-07T20:08:40;26.45;;;24.25;;
22837;SDS011;11585;51.450;-0.240;2024-01-07T20:11:20;26.35;;;24.15;;
22837;SDS011;11585;51.450;-0.240;2024-01-07T20:13:47;27.33;;;25.02;;
22837;SDS011;11585;51.450;-0.240;2024-01-07T20:16:14;26.25;;;24.00;;
22837;SDS011;11585;51.450;-0.240;2024-01-07T20:18:46;26.25;;;23.98;;
22837;SDS011;11585;51.450;-0.240;2024-01-07T20:21:21;26.52;;;24.25;;
22837;SDS011;11585;51.450;-0.240;2024-01-07T20:23:48;27.10;;;24.80;;
22837;SDS011;11585;51.450;-0.240;2024-01-07T20:26:15;26.92;;;24.63;;
22837;SDS011;11585;51.450;-0.240;2024-01-07T20:28:41;26.98;;;24.67;;
22837;SDS011;11585;51.450;-0.240;2024-01-07T20:31:14;26.90;;;24.63;;
22837;SDS011;11585;51.450;-0.240;2024-01-07T20:33:43;26.60;;;24.40;;
22837;SDS011;11585;51.450;-0.240;2024-01-07T20:36:09;26.35;;;24.15;;
22837;SDS011;11585;51.450;-0.240;2024-01-07T20:38:37;26.83;;;24.55;;
22837;SDS011;11585;51.450;-0.240;2024-01-07T20:44:10;26.85;;;24.58;;
22837;SDS011;11585;51.450;-0.240;2024-01-07T20:46:36;27.17;;;24.88;;
22837;SDS011;11585;51.450;-0.240;2024-01-07T20:49:07;26.85;;;24.55;;
22837;SDS011;11585;51.450;-0.240;2024-01-07T20:54:27;26.52;;;24.33;;
22837;SDS011;11585;51.450;-0.240;2024-01-07T20:56:54;26.90;;;24.60;;
22837;SDS011;11585;51.450;-0.240;2024-01-07T20:59:29;26.90;;;24.60;;
22837;SDS011;11585;51.450;-0.240;2024-01-07T21:02:04;26.20;;;24.00;;
22837;SDS011;11585;51.450;-0.240;2024-01-07T21:04:35;26.67;;;24.38;;
22837;SDS011;11585;51.450;-0.240;2024-01-07T21:07:01;26.33;;;24.13;;
22837;SDS011;11585;51.450;-0.240;2024-01-07T21:09:27;26.27;;;24.08;;
22837;SDS011;11585;51.450;-0.240;2024-01-07T21:11:55;26.88;;;24.67;;